createdAt,value
2022-09-14T00:01:29.592Z,87.3
2022-09-14T00:07:49.557Z,87.34
2022-09-14T00:14:12.616Z,87.64
2022-09-14T00:20:32.568Z,87.33
2022-09-14T00:26:55.598Z,87.44
2022-09-14T00:33:15.581Z,87.52
2022-09-14T00:39:38.578Z,87.36
2022-09-14T00:45:58.599Z,87.73
2022-09-14T00:52:21.665Z,87.82
2022-09-14T00:58:41.589Z,88.4
2022-09-14T01:05:04.557Z,88.16
2022-09-14T01:11:24.684Z,88.56
2022-09-14T01:17:47.555Z,88.42
2022-09-14T01:24:07.570Z,88.49
2022-09-14T01:30:30.579Z,89.22
2022-09-14T01:36:50.575Z,89.48
2022-09-14T01:43:13.567Z,89.31
2022-09-14T01:49:33.583Z,89.18
2022-09-14T01:55:56.566Z,88.92
2022-09-14T02:02:16.573Z,89.22
2022-09-14T02:08:39.602Z,89.39
2022-09-14T02:14:59.589Z,89.52
2022-09-14T02:21:22.559Z,89.23
2022-09-14T02:27:42.603Z,89.05
2022-09-14T02:34:05.561Z,89.48
2022-09-14T02:40:25.624Z,89.38
2022-09-14T02:46:48.765Z,89.26
2022-09-14T02:53:08.584Z,89.74
2022-09-14T02:59:31.557Z,89.73
2022-09-14T03:05:51.592Z,89.54
2022-09-14T03:12:14.559Z,89.3
2022-09-14T03:18:34.585Z,89.29
2022-09-14T03:24:57.587Z,89.09
2022-09-14T03:31:17.590Z,89.01
2022-09-14T03:37:40.582Z,89.12
2022-09-14T03:44:00.670Z,89.05
2022-09-14T03:50:23.577Z,89.26
2022-09-14T03:56:43.556Z,89.19
2022-09-14T04:03:06.612Z,89.3
2022-09-14T04:19:13.584Z,89.44
2022-09-14T04:25:33.566Z,89.5
2022-09-14T04:31:56.579Z,89.61
2022-09-14T04:38:16.692Z,89.88
2022-09-14T04:44:39.557Z,89.65
2022-09-14T04:50:59.574Z,90.05
2022-09-14T04:57:22.586Z,89.98
2022-09-14T05:03:42.637Z,90
2022-09-14T05:10:05.587Z,89.94
2022-09-14T05:16:25.736Z,89.84
2022-09-14T05:22:48.572Z,90.18
2022-09-14T05:29:08.561Z,90.18
2022-09-14T05:35:31.792Z,90.22
2022-09-14T05:41:51.568Z,90.18
2022-09-14T05:48:14.561Z,90.04
2022-09-14T05:54:34.683Z,90
2022-09-14T06:00:57.564Z,90.25
2022-09-14T06:07:18.938Z,90.25
2022-09-14T06:13:40.671Z,90.26
2022-09-14T06:20:04.331Z,90.35
2022-09-14T06:26:23.577Z,90.31
2022-09-14T06:32:43.647Z,90.36
2022-09-14T06:39:06.578Z,90.32
2022-09-14T06:45:26.562Z,90.8
2022-09-14T06:51:49.691Z,90.99
2022-09-14T06:58:09.591Z,90.81
2022-09-14T07:04:32.562Z,91.04
2022-09-14T07:10:52.686Z,90.81
2022-09-14T07:17:15.560Z,90.92
2022-09-14T07:23:35.605Z,91.06
2022-09-14T07:29:58.603Z,90.91
2022-09-14T07:36:18.568Z,90.83
2022-09-14T07:42:41.603Z,90.66
2022-09-14T07:49:01.674Z,90.31
2022-09-14T07:55:24.581Z,90.4
2022-09-14T08:01:44.589Z,89.9
2022-09-14T08:08:07.596Z,90.03
2022-09-14T08:14:27.581Z,89.99
2022-09-14T08:20:50.574Z,89.25
2022-09-14T08:27:12.156Z,89.39
2022-09-14T08:33:33.568Z,88.84
2022-09-14T08:39:53.590Z,88.39
2022-09-14T08:46:16.853Z,88.57
2022-09-14T08:52:36.554Z,88.39
2022-09-14T08:58:59.581Z,88.25
2022-09-14T09:05:19.680Z,88.31
2022-09-14T09:11:42.565Z,88.09
2022-09-14T09:18:02.581Z,87.53
2022-09-14T09:24:25.670Z,88.23
2022-09-14T09:30:45.558Z,87.7
2022-09-14T09:37:08.568Z,87.83
2022-09-14T09:43:48.207Z,87.79
2022-09-14T09:49:51.588Z,87.69
2022-09-14T10:05:41.503Z,88.76
2022-09-14T10:12:01.573Z,88.76
2022-09-14T10:18:24.563Z,87.96
2022-09-14T10:24:44.623Z,88.04
2022-09-14T10:31:07.615Z,88.67
2022-09-14T10:37:27.574Z,88.75
2022-09-14T10:43:50.616Z,88.88
2022-09-14T10:50:10.556Z,88.33
2022-09-14T10:56:33.595Z,88.25
2022-09-14T11:02:53.746Z,88.36
2022-09-14T11:09:16.622Z,88.93
2022-09-14T11:15:36.632Z,89.91
2022-09-14T11:21:59.599Z,90.74
2022-09-14T11:28:19.576Z,90.83
2022-09-14T11:34:42.580Z,90.76
2022-09-14T11:41:02.601Z,90.8
2022-09-14T11:47:25.570Z,90.17
2022-09-14T11:53:46.620Z,89.72
2022-09-14T12:00:09.787Z,89.1
2022-09-14T12:06:29.562Z,89.09
2022-09-14T12:12:52.752Z,88.77
2022-09-14T12:19:12.790Z,87.09
2022-09-14T12:25:35.602Z,87.68
2022-09-14T12:31:55.566Z,87.01
2022-09-14T12:38:18.624Z,86.34
2022-09-14T12:44:38.586Z,86.01
2022-09-14T12:51:01.797Z,87.37
2022-09-14T12:57:21.596Z,87.07
2022-09-14T13:03:44.570Z,87.75
2022-09-14T13:10:04.664Z,88.22
2022-09-14T13:16:27.649Z,88.72
2022-09-14T13:22:47.582Z,88.26
2022-09-14T13:29:10.571Z,89.01
2022-09-14T13:35:30.745Z,89.38
2022-09-14T13:41:53.600Z,88.2
2022-09-14T13:48:13.577Z,88.56
2022-09-14T13:54:36.611Z,88.65
2022-09-14T14:00:56.649Z,88.39
2022-09-14T14:07:19.597Z,88.64
2022-09-14T14:13:39.662Z,88.32
2022-09-14T14:20:02.629Z,87.64
2022-09-14T14:26:22.717Z,87.78
2022-09-14T14:32:45.618Z,88.31
2022-09-14T14:39:05.601Z,88.51
2022-09-14T14:45:28.690Z,89.07
2022-09-14T14:51:48.610Z,89.76
2022-09-14T14:58:11.603Z,90
2022-09-14T15:04:31.582Z,90.5
2022-09-14T15:10:54.634Z,91.38
2022-09-14T15:34:54.675Z,91.54
2022-09-14T15:41:14.574Z,91.74
2022-09-14T15:47:37.630Z,91.35
2022-09-14T15:53:57.591Z,91.39
2022-09-14T16:00:20.621Z,91.26
2022-09-14T16:06:40.603Z,91.35
2022-09-14T16:13:03.606Z,91.77
2022-09-14T16:19:23.637Z,91.46
2022-09-14T16:25:46.573Z,91.79
2022-09-14T16:32:06.747Z,91.39
2022-09-14T16:38:29.623Z,91.24
2022-09-14T16:44:49.594Z,90.95
2022-09-14T16:51:12.630Z,91.28
2022-09-14T16:57:32.583Z,91.08
2022-09-14T17:03:55.613Z,91.37
2022-09-14T17:10:15.651Z,91.17
2022-09-14T17:16:38.705Z,91.42
2022-09-14T17:22:58.652Z,91.46
2022-09-14T17:29:21.744Z,91.45
2022-09-14T17:35:41.603Z,91.4
2022-09-14T17:42:04.622Z,91.39
2022-09-14T17:48:24.638Z,91.5
2022-09-14T17:54:47.681Z,91.34
2022-09-14T18:01:07.630Z,91.26
2022-09-14T18:07:30.610Z,91.4
2022-09-14T18:13:50.753Z,91.52
2022-09-14T18:20:13.578Z,91.21
2022-09-14T18:26:33.936Z,91.2
2022-09-14T18:32:56.636Z,91.16
2022-09-14T18:39:16.628Z,91.16
2022-09-14T18:45:39.710Z,91.18
2022-09-14T18:51:59.585Z,91.05
2022-09-14T18:58:22.627Z,91
2022-09-14T19:04:42.613Z,91.08
2022-09-14T19:11:05.620Z,91.08
2022-09-14T19:17:25.601Z,91.01
2022-09-14T19:23:48.616Z,91
2022-09-14T19:30:08.587Z,91.06
2022-09-14T19:36:31.574Z,90.84
2022-09-14T19:42:51.627Z,90.68
2022-09-14T19:49:14.900Z,90.54
2022-09-14T19:55:34.586Z,90.68
2022-09-14T20:01:57.712Z,90.97
2022-09-14T20:08:17.595Z,90.63
2022-09-14T20:14:40.642Z,90.77
2022-09-14T20:38:22.526Z,89.93
2022-09-14T20:44:42.561Z,90.15
2022-09-14T20:51:05.564Z,89.97
2022-09-14T20:57:25.614Z,89.95
2022-09-14T21:03:48.582Z,90.26
2022-09-14T21:10:08.616Z,89.96
2022-09-14T21:16:31.600Z,90.25
2022-09-14T21:22:51.575Z,90.17
2022-09-14T21:29:14.603Z,90.08
2022-09-14T21:35:34.622Z,89.78
2022-09-14T21:41:59.290Z,90.47
2022-09-14T21:48:17.610Z,90.13
2022-09-14T21:54:40.634Z,89.79
2022-09-14T22:20:11.596Z,90.09
2022-09-14T22:26:31.570Z,90.36
2022-09-14T22:32:54.600Z,90.41
2022-09-14T22:39:14.728Z,90.36
2022-09-14T22:45:37.705Z,89.98
2022-09-14T22:51:57.606Z,89.95
2022-09-14T22:58:20.654Z,90.39
2022-09-14T23:04:40.589Z,90.19
2022-09-14T23:11:03.596Z,90.36
2022-09-14T23:17:23.795Z,90.03
2022-09-14T23:23:46.612Z,90.29
2022-09-14T23:30:06.596Z,90.4
2022-09-14T23:36:29.602Z,90.79
2022-09-14T23:42:49.666Z,90.26
2022-09-14T23:49:12.576Z,90.6
2022-09-14T23:55:32.636Z,89.96
